createdAt,value
2023-09-28T00:00:34.397Z,7.95
2023-09-28T00:03:02.925Z,7.60
2023-09-28T00:05:31.997Z,6.30
2023-09-28T00:08:01.840Z,5.78
2023-09-28T00:10:31.860Z,10.40
2023-09-28T00:13:00.456Z,8.75
2023-09-28T00:15:27.601Z,11.00
2023-09-28T00:17:56.137Z,7.15
2023-09-28T00:20:24.042Z,6.35
2023-09-28T00:22:54.713Z,10.82
2023-09-28T00:25:24.941Z,5.40
2023-09-28T00:27:54.269Z,6.78
2023-09-28T00:30:24.121Z,7.70
2023-09-28T00:32:56.282Z,8.18
2023-09-28T00:35:27.494Z,7.93
2023-09-28T00:37:54.967Z,6.60
2023-09-28T00:40:42.718Z,8.80
2023-09-28T00:43:11.563Z,7.35
2023-09-28T00:45:39.912Z,6.57
2023-09-28T00:48:10.650Z,8.40
2023-09-28T00:50:37.810Z,6.65
2023-09-28T00:53:08.892Z,9.73
2023-09-28T00:55:38.009Z,10.68
2023-09-28T00:58:06.511Z,6.72
2023-09-28T01:00:34.833Z,5.85
2023-09-28T01:03:04.211Z,7.38
2023-09-28T01:05:35.709Z,9.98
2023-09-28T01:08:16.289Z,9.43
2023-09-28T01:10:46.484Z,7.78
2023-09-28T01:13:16.947Z,10.00
2023-09-28T01:15:49.304Z,11.85
2023-09-28T01:18:18.366Z,12.27
2023-09-28T01:20:46.619Z,8.32
2023-09-28T01:23:16.446Z,7.72
2023-09-28T01:25:47.962Z,9.40
2023-09-28T01:28:20.775Z,8.83
2023-09-28T01:30:48.754Z,7.53
2023-09-28T01:33:16.507Z,8.95
2023-09-28T01:35:46.463Z,12.77
2023-09-28T01:38:48.268Z,8.70
2023-09-28T01:41:16.072Z,10.30
2023-09-28T01:43:44.180Z,9.93
2023-09-28T01:46:11.601Z,10.13
2023-09-28T01:48:38.595Z,13.57
2023-09-28T01:51:05.564Z,9.95
2023-09-28T01:53:32.491Z,11.27
2023-09-28T01:56:00.636Z,11.73
2023-09-28T01:58:31.181Z,10.13
2023-09-28T02:00:58.303Z,9.13
2023-09-28T02:03:26.271Z,12.05
2023-09-28T02:05:53.847Z,13.13
2023-09-28T02:08:21.075Z,18.38
2023-09-28T02:10:48.278Z,13.48
2023-09-28T02:13:16.200Z,9.70
2023-09-28T02:15:43.962Z,11.68
2023-09-28T02:18:10.909Z,12.55
2023-09-28T02:20:38.254Z,11.00
2023-09-28T02:23:06.794Z,9.73
2023-09-28T02:25:34.430Z,11.73
2023-09-28T02:28:01.826Z,10.38
2023-09-28T02:30:28.785Z,12.20
2023-09-28T02:32:56.970Z,11.95
2023-09-28T02:35:25.348Z,14.30
2023-09-28T02:37:53.415Z,12.85
2023-09-28T02:40:21.253Z,11.60
2023-09-28T02:42:50.163Z,11.25
2023-09-28T02:45:18.004Z,9.85
2023-09-28T02:47:48.222Z,15.20
2023-09-28T02:50:18.495Z,8.68
2023-09-28T02:52:48.267Z,11.80
2023-09-28T02:55:15.974Z,10.35
2023-09-28T02:57:43.290Z,8.77
2023-09-28T03:00:15.315Z,10.50
2023-09-28T03:02:42.285Z,9.65
2023-09-28T03:05:11.375Z,13.95
2023-09-28T03:07:40.486Z,11.82
2023-09-28T03:10:08.556Z,12.80
2023-09-28T03:12:35.632Z,12.18
2023-09-28T03:15:05.852Z,12.63
2023-09-28T03:17:35.790Z,13.20
2023-09-28T03:20:06.265Z,11.38
2023-09-28T03:22:33.238Z,10.52
2023-09-28T03:25:04.309Z,12.77
2023-09-28T03:27:33.088Z,11.00
2023-09-28T03:30:00.290Z,17.55
2023-09-28T03:32:27.297Z,14.95
2023-09-28T03:34:55.807Z,16.30
2023-09-28T03:37:22.742Z,14.18
2023-09-28T03:39:56.176Z,10.85
2023-09-28T03:42:27.267Z,14.90
2023-09-28T03:44:54.356Z,13.55
2023-09-28T03:47:21.379Z,14.57
2023-09-28T03:49:48.738Z,12.65
2023-09-28T03:52:15.694Z,14.65
2023-09-28T03:54:42.581Z,11.60
2023-09-28T03:57:09.628Z,15.65
2023-09-28T03:59:36.611Z,13.43
2023-09-28T04:02:03.524Z,15.52
2023-09-28T04:04:30.513Z,14.40
2023-09-28T04:06:57.474Z,11.65
2023-09-28T04:09:24.794Z,12.38
2023-09-28T04:11:51.931Z,16.40
2023-09-28T04:14:20.833Z,15.27
2023-09-28T04:16:47.928Z,17.70
2023-09-28T04:19:15.723Z,14.50
2023-09-28T04:21:42.775Z,17.90
2023-09-28T04:24:11.805Z,17.48
2023-09-28T04:26:38.919Z,17.13
2023-09-28T04:29:05.857Z,16.15
2023-09-28T04:31:33.017Z,18.25
2023-09-28T04:33:59.943Z,19.85
2023-09-28T04:36:28.062Z,21.40
2023-09-28T04:38:55.204Z,21.58
2023-09-28T04:41:22.182Z,15.00
2023-09-28T04:43:49.090Z,14.43
2023-09-28T04:46:16.081Z,19.90
2023-09-28T04:48:44.096Z,14.48
2023-09-28T04:51:11.052Z,16.85
2023-09-28T04:53:37.909Z,15.48
2023-09-28T04:56:12.496Z,18.67
2023-09-28T04:58:40.008Z,17.55
2023-09-28T05:01:10.337Z,25.13
2023-09-28T05:03:38.227Z,24.05
2023-09-28T05:06:06.195Z,24.00
2023-09-28T05:08:34.223Z,22.35
2023-09-28T05:11:01.162Z,26.10
2023-09-28T05:13:32.877Z,23.95
2023-09-28T05:16:01.428Z,26.53
2023-09-28T05:18:28.453Z,23.08
2023-09-28T05:20:55.349Z,28.95
2023-09-28T05:23:22.393Z,26.95
2023-09-28T05:25:51.776Z,27.88
2023-09-28T05:28:21.222Z,23.08
2023-09-28T05:30:49.511Z,28.25
2023-09-28T05:33:17.858Z,20.48
2023-09-28T05:35:44.900Z,23.45
2023-09-28T05:38:12.139Z,23.08
2023-09-28T05:40:39.268Z,30.45
2023-09-28T05:43:06.225Z,36.20
2023-09-28T05:45:35.403Z,20.83
2023-09-28T05:48:04.041Z,25.02
2023-09-28T05:50:31.037Z,27.83
2023-09-28T05:52:58.164Z,22.90
2023-09-28T05:55:27.008Z,23.20
2023-09-28T05:57:54.248Z,26.70
2023-09-28T06:00:24.009Z,24.95
2023-09-28T06:02:51.055Z,25.65
2023-09-28T06:05:18.055Z,27.15
2023-09-28T06:07:47.171Z,32.40
2023-09-28T06:10:16.213Z,29.90
2023-09-28T06:12:45.372Z,30.50
2023-09-28T06:15:15.051Z,23.90
2023-09-28T06:17:42.094Z,28.70
2023-09-28T06:20:09.572Z,42.75
2023-09-28T06:22:36.841Z,27.38
2023-09-28T06:25:08.311Z,37.88
2023-09-28T06:27:35.464Z,33.97
2023-09-28T06:30:05.400Z,24.45
2023-09-28T06:32:32.466Z,30.92
2023-09-28T06:34:59.591Z,33.78
2023-09-28T06:37:26.784Z,27.30
2023-09-28T06:39:53.995Z,26.95
2023-09-28T06:42:36.237Z,37.15
2023-09-28T06:45:06.069Z,32.65
2023-09-28T06:47:46.434Z,27.50
2023-09-28T06:50:20.791Z,38.80
2023-09-28T06:52:48.158Z,33.22
2023-09-28T06:55:15.336Z,32.80
2023-09-28T06:57:42.236Z,32.17
2023-09-28T07:00:18.056Z,28.77
2023-09-28T07:02:49.039Z,31.30
2023-09-28T07:05:20.470Z,29.27
2023-09-28T07:07:47.615Z,36.30
2023-09-28T07:10:14.843Z,30.98
2023-09-28T07:12:42.767Z,35.65
2023-09-28T07:15:11.316Z,26.90
2023-09-28T07:17:39.418Z,32.70
2023-09-28T07:20:07.370Z,30.67
2023-09-28T07:22:34.654Z,31.17
2023-09-28T07:25:01.693Z,40.55
2023-09-28T07:27:33.535Z,34.22
2023-09-28T07:30:02.216Z,39.55
2023-09-28T07:32:30.500Z,32.13
2023-09-28T07:34:58.213Z,39.15
2023-09-28T07:37:26.853Z,44.63
2023-09-28T07:39:55.648Z,37.65
2023-09-28T07:42:22.607Z,33.85
2023-09-28T07:44:49.617Z,31.50
2023-09-28T07:47:16.609Z,30.00
2023-09-28T07:49:43.633Z,36.92
2023-09-28T07:52:11.033Z,30.27
2023-09-28T07:54:38.986Z,35.30
2023-09-28T07:57:06.671Z,33.05
2023-09-28T07:59:35.580Z,25.73
2023-09-28T08:02:03.523Z,25.52
2023-09-28T08:04:32.090Z,39.53
2023-09-28T08:06:59.412Z,39.53
2023-09-28T08:09:27.358Z,27.20
2023-09-28T08:11:54.489Z,38.42
2023-09-28T08:14:22.888Z,31.92
2023-09-28T08:16:50.336Z,33.60
2023-09-28T08:19:17.830Z,35.70
2023-09-28T08:21:45.832Z,27.48
2023-09-28T08:24:14.414Z,25.45
2023-09-28T08:26:41.576Z,26.38
2023-09-28T08:29:09.770Z,32.58
2023-09-28T08:31:36.761Z,34.35
2023-09-28T08:34:06.872Z,32.67
2023-09-28T08:36:33.853Z,38.00
2023-09-28T08:39:02.676Z,37.25
2023-09-28T08:41:45.758Z,33.55
2023-09-28T08:44:13.143Z,32.40
2023-09-28T08:46:46.367Z,28.10
2023-09-28T08:49:16.826Z,33.10
2023-09-28T08:51:45.530Z,32.28
2023-09-28T08:54:15.087Z,37.13
2023-09-28T08:56:44.181Z,31.90
2023-09-28T08:59:11.773Z,30.98
2023-09-28T09:01:42.095Z,28.40
2023-09-28T09:04:09.288Z,28.92
2023-09-28T09:09:07.933Z,30.80
2023-09-28T09:11:38.546Z,28.33
2023-09-28T09:14:05.721Z,27.05
2023-09-28T09:16:33.649Z,34.50
2023-09-28T09:19:01.819Z,26.40
2023-09-28T09:21:41.071Z,25.08
2023-09-28T09:24:12.169Z,31.58
2023-09-28T09:26:44.017Z,32.22
2023-09-28T09:29:12.795Z,21.17
2023-09-28T09:31:42.512Z,27.38
2023-09-28T09:34:13.518Z,29.83
2023-09-28T09:36:42.436Z,32.88
2023-09-28T09:39:33.476Z,38.20
2023-09-28T09:42:01.785Z,25.20
2023-09-28T09:44:28.954Z,31.98
2023-09-28T09:46:59.687Z,23.08
2023-09-28T09:49:28.854Z,22.85
2023-09-28T09:52:00.593Z,24.13
2023-09-28T09:54:28.758Z,29.27
2023-09-28T09:56:56.145Z,35.65
2023-09-28T09:59:23.865Z,28.52
2023-09-28T10:01:54.831Z,28.25
2023-09-28T10:04:25.212Z,26.88
2023-09-28T10:06:54.147Z,24.25
2023-09-28T10:09:22.454Z,26.10
2023-09-28T10:11:51.576Z,34.22
2023-09-28T10:14:22.649Z,19.92
2023-09-28T10:16:54.523Z,26.85
2023-09-28T10:19:26.248Z,34.72
2023-09-28T10:21:57.089Z,29.73
2023-09-28T10:24:32.829Z,29.33
2023-09-28T10:27:11.677Z,32.38
2023-09-28T10:29:40.912Z,23.67
2023-09-28T10:32:29.131Z,26.23
2023-09-28T10:35:22.340Z,23.67
2023-09-28T10:38:26.317Z,24.13
2023-09-28T10:41:04.056Z,25.55
2023-09-28T10:43:51.193Z,25.05
2023-09-28T10:46:18.821Z,26.95
2023-09-28T10:48:49.472Z,25.40
2023-09-28T10:51:17.799Z,30.40
2023-09-28T10:53:46.237Z,20.10
2023-09-28T10:56:13.973Z,18.70
2023-09-28T10:58:43.357Z,25.85
2023-09-28T11:01:11.444Z,20.33
2023-09-28T11:03:40.052Z,24.20
2023-09-28T11:06:12.044Z,19.40
2023-09-28T11:08:39.519Z,15.32
2023-09-28T11:11:06.696Z,18.52
2023-09-28T11:13:34.144Z,22.40
2023-09-28T11:16:02.248Z,18.48
2023-09-28T11:18:29.437Z,20.05
2023-09-28T11:21:00.872Z,16.73
2023-09-28T11:23:29.386Z,19.58
2023-09-28T11:25:56.934Z,15.35
2023-09-28T11:28:26.796Z,16.23
2023-09-28T11:31:11.000Z,20.92
2023-09-28T11:33:40.485Z,17.08
2023-09-28T11:36:08.859Z,20.70
2023-09-28T11:38:36.073Z,21.23
2023-09-28T11:41:05.646Z,23.17
2023-09-28T11:43:52.248Z,14.63
2023-09-28T11:46:21.584Z,17.88
2023-09-28T11:48:48.764Z,19.35
2023-09-28T11:51:18.768Z,19.88
2023-09-28T11:53:46.820Z,19.65
2023-09-28T11:56:17.857Z,17.52
2023-09-28T11:58:45.997Z,20.98
2023-09-28T12:01:13.139Z,18.20
2023-09-28T12:03:40.425Z,17.65
2023-09-28T12:06:08.013Z,21.60
2023-09-28T12:08:35.127Z,21.70
2023-09-28T12:11:02.257Z,19.88
2023-09-28T12:13:29.385Z,11.82
2023-09-28T12:15:57.685Z,15.82
2023-09-28T12:18:24.691Z,15.73
2023-09-28T12:20:52.814Z,16.13
2023-09-28T12:23:21.005Z,11.35
2023-09-28T12:25:48.069Z,17.65
2023-09-28T12:28:15.089Z,18.13
2023-09-28T12:30:42.090Z,18.42
2023-09-28T12:33:10.100Z,14.27
2023-09-28T12:35:40.193Z,23.05
2023-09-28T12:38:09.397Z,17.98
2023-09-28T12:40:36.982Z,17.23
2023-09-28T12:43:10.969Z,17.75
2023-09-28T12:45:38.184Z,18.17
2023-09-28T12:48:11.307Z,17.77
2023-09-28T12:50:39.019Z,12.23
2023-09-28T12:53:06.099Z,15.15
2023-09-28T12:55:34.325Z,13.80
2023-09-28T12:58:01.500Z,18.90
2023-09-28T13:00:28.805Z,18.00
2023-09-28T13:02:59.024Z,16.88
2023-09-28T13:05:27.125Z,13.20
2023-09-28T13:07:54.344Z,14.07
2023-09-28T13:10:26.302Z,10.80
2023-09-28T13:12:54.429Z,11.98
2023-09-28T13:15:24.128Z,13.93
2023-09-28T13:17:53.946Z,14.55
2023-09-28T13:20:28.917Z,11.32
2023-09-28T13:23:01.883Z,19.08
2023-09-28T13:25:30.879Z,13.27
2023-09-28T13:27:57.919Z,14.18
2023-09-28T13:30:25.456Z,13.98
2023-09-28T13:32:53.862Z,12.68
2023-09-28T13:35:27.421Z,14.48
2023-09-28T13:37:55.528Z,14.00
2023-09-28T13:40:27.700Z,11.73
2023-09-28T13:43:01.535Z,15.82
2023-09-28T13:45:31.346Z,16.52
2023-09-28T13:48:06.562Z,14.18
2023-09-28T13:50:37.086Z,14.05
2023-09-28T13:53:04.538Z,11.80
2023-09-28T13:55:32.577Z,13.80
2023-09-28T13:58:00.984Z,13.07
2023-09-28T14:00:28.218Z,15.60
2023-09-28T14:03:01.610Z,18.20
2023-09-28T14:05:31.355Z,12.18
2023-09-28T14:08:00.899Z,13.70
2023-09-28T14:10:30.050Z,14.43
2023-09-28T14:12:57.696Z,16.67
2023-09-28T14:15:24.768Z,17.50
2023-09-28T14:17:51.875Z,15.20
2023-09-28T14:20:19.373Z,14.40
2023-09-28T14:22:49.294Z,14.40
2023-09-28T14:25:17.247Z,18.67
2023-09-28T14:27:48.708Z,14.20
2023-09-28T14:30:17.127Z,13.07
2023-09-28T14:32:50.991Z,13.73
2023-09-28T14:35:18.105Z,13.40
2023-09-28T14:37:45.212Z,14.00
2023-09-28T14:40:17.489Z,14.65
2023-09-28T14:42:46.498Z,15.27
2023-09-28T14:45:14.643Z,16.27
2023-09-28T14:47:42.374Z,20.10
2023-09-28T14:50:13.915Z,17.55
2023-09-28T14:52:41.591Z,14.35
2023-09-28T14:55:10.266Z,15.20
2023-09-28T14:57:37.968Z,15.65
2023-09-28T15:00:13.284Z,16.80
2023-09-28T15:02:41.340Z,12.45
2023-09-28T15:05:10.978Z,13.15
2023-09-28T15:07:39.382Z,16.13
2023-09-28T15:10:06.935Z,13.27
2023-09-28T15:12:34.129Z,19.48
2023-09-28T15:15:01.715Z,20.50
2023-09-28T15:17:29.973Z,10.65
2023-09-28T15:19:57.449Z,13.98
2023-09-28T15:22:24.456Z,26.02
2023-09-28T15:24:52.208Z,14.82
2023-09-28T15:27:20.139Z,12.43
2023-09-28T15:29:47.187Z,18.55
2023-09-28T15:32:15.240Z,16.80
2023-09-28T15:34:42.960Z,17.35
2023-09-28T15:37:13.010Z,19.85
2023-09-28T15:39:40.067Z,14.77
2023-09-28T15:42:07.116Z,13.57
2023-09-28T15:44:37.119Z,18.50
2023-09-28T15:47:04.191Z,16.00
2023-09-28T15:49:31.151Z,23.13
2023-09-28T15:51:59.403Z,24.40
2023-09-28T15:54:26.397Z,18.75
2023-09-28T15:56:53.584Z,18.95
2023-09-28T15:59:20.909Z,20.15
2023-09-28T16:01:48.987Z,18.85
2023-09-28T16:04:17.472Z,16.85
2023-09-28T16:06:45.706Z,18.05
2023-09-28T16:09:14.740Z,15.15
2023-09-28T16:11:44.100Z,13.50
2023-09-28T16:14:11.161Z,22.65
2023-09-28T16:16:38.176Z,17.48
2023-09-28T16:19:06.773Z,15.48
2023-09-28T16:21:35.045Z,17.88
2023-09-28T16:24:04.274Z,16.52
2023-09-28T16:26:32.673Z,16.20
2023-09-28T16:28:59.715Z,18.75
2023-09-28T16:31:26.942Z,21.83
2023-09-28T16:33:56.928Z,19.50
2023-09-28T16:36:25.552Z,16.02
2023-09-28T16:38:54.028Z,16.27
2023-09-28T16:41:21.346Z,17.83
2023-09-28T16:43:52.816Z,14.90
2023-09-28T16:46:21.229Z,14.75
2023-09-28T16:48:48.404Z,16.67
2023-09-28T16:51:15.717Z,17.63
2023-09-28T16:53:42.684Z,15.63
2023-09-28T16:56:10.132Z,13.13
2023-09-28T16:58:40.633Z,17.00
2023-09-28T17:01:07.703Z,17.17
2023-09-28T17:03:35.013Z,20.75
2023-09-28T17:06:05.056Z,17.40
2023-09-28T17:08:34.638Z,17.48
2023-09-28T17:11:02.163Z,15.80
2023-09-28T17:13:30.215Z,21.73
2023-09-28T17:15:59.658Z,20.42
2023-09-28T17:18:29.887Z,19.85
2023-09-28T17:20:56.953Z,16.13
2023-09-28T17:23:24.115Z,17.48
2023-09-28T17:25:52.294Z,18.58
2023-09-28T17:28:26.457Z,15.75
2023-09-28T17:30:53.559Z,18.45
2023-09-28T17:33:20.652Z,18.05
2023-09-28T17:35:47.818Z,13.73
2023-09-28T17:38:15.062Z,22.95
2023-09-28T17:40:44.714Z,24.05
2023-09-28T17:43:11.729Z,19.08
2023-09-28T17:45:39.036Z,23.63
2023-09-28T17:48:07.075Z,13.50
2023-09-28T17:50:34.235Z,25.27
2023-09-28T17:53:01.316Z,15.52
2023-09-28T17:55:28.430Z,23.83
2023-09-28T17:57:56.494Z,17.42
2023-09-28T18:00:23.557Z,18.65
2023-09-28T18:02:52.339Z,13.70
2023-09-28T18:05:19.532Z,21.17
2023-09-28T18:07:46.600Z,15.38
2023-09-28T18:10:15.790Z,17.60
2023-09-28T18:12:45.587Z,18.42
2023-09-28T18:15:12.694Z,22.58
2023-09-28T18:17:40.151Z,19.55
2023-09-28T18:20:08.941Z,23.00
2023-09-28T18:22:36.006Z,20.45
2023-09-28T18:25:04.292Z,23.65
2023-09-28T18:27:31.359Z,21.38
2023-09-28T18:29:58.988Z,21.75
2023-09-28T18:32:27.072Z,21.08
2023-09-28T18:34:54.215Z,24.35
2023-09-28T18:37:21.262Z,26.42
2023-09-28T18:39:48.586Z,20.58
2023-09-28T18:42:15.735Z,26.40
2023-09-28T18:44:42.808Z,23.98
2023-09-28T18:47:11.416Z,22.45
2023-09-28T18:49:38.644Z,17.65
2023-09-28T18:52:06.168Z,24.40
2023-09-28T18:54:33.323Z,23.30
2023-09-28T18:57:05.301Z,21.25
2023-09-28T18:59:32.605Z,21.95
2023-09-28T19:01:59.805Z,24.92
2023-09-28T19:04:30.067Z,21.50
2023-09-28T19:06:59.986Z,17.40
2023-09-28T19:09:27.308Z,18.33
2023-09-28T19:11:54.579Z,22.02
2023-09-28T19:14:22.016Z,16.42
2023-09-28T19:16:51.159Z,22.10
2023-09-28T19:19:19.989Z,22.15
2023-09-28T19:21:48.283Z,26.65
2023-09-28T19:24:15.321Z,20.15
2023-09-28T19:26:42.532Z,23.13
2023-09-28T19:29:11.667Z,24.33
2023-09-28T19:31:39.764Z,24.17
2023-09-28T19:34:08.352Z,18.65
2023-09-28T19:36:36.444Z,17.35
2023-09-28T19:39:04.555Z,19.65
2023-09-28T19:41:48.056Z,19.23
2023-09-28T19:44:16.232Z,18.48
2023-09-28T19:46:44.617Z,24.17
2023-09-28T19:49:12.718Z,20.25
2023-09-28T19:51:41.739Z,23.60
2023-09-28T19:54:08.896Z,25.55
2023-09-28T19:56:39.650Z,19.60
2023-09-28T19:59:12.390Z,21.88
2023-09-28T20:01:39.714Z,21.35
2023-09-28T20:04:07.073Z,22.00
2023-09-28T20:06:34.464Z,17.92
2023-09-28T20:09:02.886Z,21.98
2023-09-28T20:11:30.224Z,18.95
2023-09-28T20:13:58.784Z,20.65
2023-09-28T20:16:26.354Z,16.95
2023-09-28T20:18:54.416Z,21.33
2023-09-28T20:21:23.293Z,24.88
2023-09-28T20:23:54.678Z,17.67
2023-09-28T20:26:25.616Z,15.68
2023-09-28T20:28:52.820Z,21.38
2023-09-28T20:31:20.017Z,16.70
2023-09-28T20:33:47.640Z,23.52
2023-09-28T20:36:20.498Z,20.95
2023-09-28T20:38:47.833Z,21.23
2023-09-28T20:41:15.040Z,17.38
2023-09-28T20:48:12.462Z,18.98
2023-09-28T20:51:00.176Z,19.90
2023-09-28T20:54:00.622Z,24.75
2023-09-28T20:56:38.708Z,17.15
2023-09-28T21:00:20.355Z,16.77
2023-09-28T21:02:51.014Z,21.45
2023-09-28T21:05:59.325Z,20.25
2023-09-28T21:08:30.935Z,23.13
2023-09-28T21:11:04.966Z,19.85
2023-09-28T21:14:26.008Z,14.52
2023-09-28T21:18:06.433Z,15.25
2023-09-28T21:20:48.313Z,21.13
2023-09-28T21:23:19.593Z,21.38
2023-09-28T21:26:25.543Z,17.77
2023-09-28T21:29:03.953Z,20.33
2023-09-28T21:31:46.501Z,16.88
2023-09-28T21:34:41.883Z,22.67
2023-09-28T21:41:39.497Z,20.67
2023-09-28T21:45:05.067Z,15.85
2023-09-28T21:48:29.510Z,14.93
2023-09-28T21:54:17.152Z,17.15
2023-09-28T22:01:06.064Z,21.40
2023-09-28T22:03:42.081Z,20.75
2023-09-28T22:06:23.763Z,15.77
2023-09-28T22:13:15.869Z,15.85
2023-09-28T22:16:06.092Z,18.35
2023-09-28T22:18:50.388Z,18.42
2023-09-28T22:21:41.617Z,18.80
2023-09-28T22:24:20.024Z,16.63
2023-09-28T22:26:59.668Z,18.85
2023-09-28T22:29:34.153Z,15.27
2023-09-28T22:32:41.106Z,16.42
2023-09-28T22:35:23.699Z,15.23
2023-09-28T22:38:15.966Z,12.32
2023-09-28T22:47:23.542Z,13.15
2023-09-28T22:50:18.822Z,13.98
2023-09-28T22:53:00.521Z,13.73
2023-09-28T22:55:41.441Z,14.63
2023-09-28T22:58:23.068Z,14.20
2023-09-28T23:01:09.805Z,20.42
2023-09-28T23:03:51.394Z,14.27
2023-09-28T23:06:31.548Z,15.07
2023-09-28T23:09:03.408Z,18.13
2023-09-28T23:11:44.034Z,15.13
2023-09-28T23:14:18.281Z,14.45
2023-09-28T23:17:03.183Z,13.30
2023-09-28T23:19:45.942Z,15.07
2023-09-28T23:22:22.628Z,11.35
2023-09-28T23:28:05.765Z,14.23
2023-09-28T23:31:13.140Z,13.43
2023-09-28T23:33:50.268Z,13.35
2023-09-28T23:36:45.547Z,10.90
2023-09-28T23:39:23.163Z,10.27
2023-09-28T23:42:05.049Z,11.93
2023-09-28T23:44:46.802Z,17.95
2023-09-28T23:47:44.822Z,14.40
2023-09-28T23:50:30.457Z,16.15
2023-09-28T23:53:13.549Z,13.82
2023-09-28T23:55:50.202Z,11.60
2023-09-28T23:58:32.048Z,10.68
